sensor_id;sensor_type;location;lat;lon;timestamp;temperature;humidity
24252;DHT22;12380;51.118;4.176;2023-08-24T00:01:21;20.10;99.90
24252;DHT22;12380;51.118;4.176;2023-08-24T00:03:46;20.10;99.90
24252;DHT22;12380;51.118;4.176;2023-08-24T00:06:15;20.20;99.90
24252;DHT22;12380;51.118;4.176;2023-08-24T00:08:42;20.10;99.90
24252;DHT22;12380;51.118;4.176;2023-08-24T00:11:09;20.10;99.90
24252;DHT22;12380;51.118;4.176;2023-08-24T00:13:37;20.10;99.90
24252;DHT22;12380;51.118;4.176;2023-08-24T00:16:02;20.10;99.90
24252;DHT22;12380;51.118;4.176;2023-08-24T00:18:29;20.20;99.90
24252;DHT22;12380;51.118;4.176;2023-08-24T00:20:58;20.20;99.90
24252;DHT22;12380;51.118;4.176;2023-08-24T00:23:24;20.20;99.90
24252;DHT22;12380;51.118;4.176;2023-08-24T00:25:50;20.30;99.90
24252;DHT22;12380;51.118;4.176;2023-08-24T00:28:15;20.30;99.90
24252;DHT22;12380;51.118;4.176;2023-08-24T00:30:41;20.30;99.90
24252;DHT22;12380;51.118;4.176;2023-08-24T00:33:07;20.30;99.90
24252;DHT22;12380;51.118;4.176;2023-08-24T00:35:32;20.30;99.90
24252;DHT22;12380;51.118;4.176;2023-08-24T00:38:00;20.30;99.90
24252;DHT22;12380;51.118;4.176;2023-08-24T00:40:26;20.30;99.90
24252;DHT22;12380;51.118;4.176;2023-08-24T00:42:52;20.40;99.90
24252;DHT22;12380;51.118;4.176;2023-08-24T00:45:18;20.50;99.90
24252;DHT22;12380;51.118;4.176;2023-08-24T00:47:44;20.50;99.90
24252;DHT22;12380;51.118;4.176;2023-08-24T00:50:10;20.30;99.90
24252;DHT22;12380;51.118;4.176;2023-08-24T00:52:37;20.20;99.90
24252;DHT22;12380;51.118;4.176;2023-08-24T00:55:05;20.30;99.90
24252;DHT22;12380;51.118;4.176;2023-08-24T00:57:30;20.40;99.90
24252;DHT22;12380;51.118;4.176;2023-08-24T00:59:57;20.40;99.90
24252;DHT22;12380;51.118;4.176;2023-08-24T01:02:24;20.40;99.90
24252;DHT22;12380;51.118;4.176;2023-08-24T01:04:50;20.40;99.90
24252;DHT22;12380;51.118;4.176;2023-08-24T01:07:15;20.40;99.90
24252;DHT22;12380;51.118;4.176;2023-08-24T01:09:42;20.50;99.90
24252;DHT22;12380;51.118;4.176;2023-08-24T01:17:21;20.10;99.90
24252;DHT22;12380;51.118;4.176;2023-08-24T01:19:47;20.10;99.90
24252;DHT22;12380;51.118;4.176;2023-08-24T01:27:29;20.20;99.90
24252;DHT22;12380;51.118;4.176;2023-08-24T01:29:56;20.30;99.90
24252;DHT22;12380;51.118;4.176;2023-08-24T01:32:22;20.40;99.90
24252;DHT22;12380;51.118;4.176;2023-08-24T01:34:48;20.30;99.90
24252;DHT22;12380;51.118;4.176;2023-08-24T01:37:13;20.40;99.90
24252;DHT22;12380;51.118;4.176;2023-08-24T01:39:42;20.50;99.90
24252;DHT22;12380;51.118;4.176;2023-08-24T01:42:09;20.40;99.90
24252;DHT22;12380;51.118;4.176;2023-08-24T01:44:37;20.30;99.90
24252;DHT22;12380;51.118;4.176;2023-08-24T01:47:05;20.30;99.90
24252;DHT22;12380;51.118;4.176;2023-08-24T01:49:32;20.20;99.90
24252;DHT22;12380;51.118;4.176;2023-08-24T01:52:01;20.10;99.90
24252;DHT22;12380;51.118;4.176;2023-08-24T01:54:27;20.10;99.90
24252;DHT22;12380;51.118;4.176;2023-08-24T01:56:53;20.20;99.90
24252;DHT22;12380;51.118;4.176;2023-08-24T01:59:25;20.10;99.90
24252;DHT22;12380;51.118;4.176;2023-08-24T02:01:53;20.10;99.90
24252;DHT22;12380;51.118;4.176;2023-08-24T02:04:19;19.90;99.90
24252;DHT22;12380;51.118;4.176;2023-08-24T02:06:44;19.70;99.90
24252;DHT22;12380;51.118;4.176;2023-08-24T02:09:10;19.70;99.90
24252;DHT22;12380;51.118;4.176;2023-08-24T02:11:36;19.70;99.90
24252;DHT22;12380;51.118;4.176;2023-08-24T02:14:01;19.70;99.90
24252;DHT22;12380;51.118;4.176;2023-08-24T02:16:27;19.70;99.90
24252;DHT22;12380;51.118;4.176;2023-08-24T02:18:52;19.70;99.90
24252;DHT22;12380;51.118;4.176;2023-08-24T02:21:18;19.70;99.90
24252;DHT22;12380;51.118;4.176;2023-08-24T02:23:44;19.70;99.90
24252;DHT22;12380;51.118;4.176;2023-08-24T02:26:09;19.80;99.90
24252;DHT22;12380;51.118;4.176;2023-08-24T02:28:36;19.80;99.90
24252;DHT22;12380;51.118;4.176;2023-08-24T02:31:02;19.80;99.90
24252;DHT22;12380;51.118;4.176;2023-08-24T02:33:28;19.90;99.90
24252;DHT22;12380;51.118;4.176;2023-08-24T02:35:54;20.00;99.90
24252;DHT22;12380;51.118;4.176;2023-08-24T02:38:20;19.80;99.90
24252;DHT22;12380;51.118;4.176;2023-08-24T02:40:48;19.70;99.90
24252;DHT22;12380;51.118;4.176;2023-08-24T02:43:13;19.80;99.90
24252;DHT22;12380;51.118;4.176;2023-08-24T02:45:39;19.80;99.90
24252;DHT22;12380;51.118;4.176;2023-08-24T02:48:04;19.70;99.90
24252;DHT22;12380;51.118;4.176;2023-08-24T02:50:32;19.70;99.90
24252;DHT22;12380;51.118;4.176;2023-08-24T02:52:58;19.70;99.90
24252;DHT22;12380;51.118;4.176;2023-08-24T02:55:24;19.70;99.90
24252;DHT22;12380;51.118;4.176;2023-08-24T02:57:50;19.60;99.90
24252;DHT22;12380;51.118;4.176;2023-08-24T03:00:18;19.70;99.90
24252;DHT22;12380;51.118;4.176;2023-08-24T03:02:43;19.60;99.90
24252;DHT22;12380;51.118;4.176;2023-08-24T03:05:09;19.60;99.90
24252;DHT22;12380;51.118;4.176;2023-08-24T03:07:34;19.30;99.90
24252;DHT22;12380;51.118;4.176;2023-08-24T03:10:00;19.10;99.90
24252;DHT22;12380;51.118;4.176;2023-08-24T03:12:26;19.00;99.90
24252;DHT22;12380;51.118;4.176;2023-08-24T03:14:52;19.00;99.90
24252;DHT22;12380;51.118;4.176;2023-08-24T03:17:18;19.00;99.90
24252;DHT22;12380;51.118;4.176;2023-08-24T03:19:44;18.90;99.90
24252;DHT22;12380;51.118;4.176;2023-08-24T03:22:11;18.90;99.90
24252;DHT22;12380;51.118;4.176;2023-08-24T03:24:37;18.80;99.90
24252;DHT22;12380;51.118;4.176;2023-08-24T03:27:03;18.80;99.90
24252;DHT22;12380;51.118;4.176;2023-08-24T03:29:28;18.80;99.90
24252;DHT22;12380;51.118;4.176;2023-08-24T03:31:54;18.90;99.90
24252;DHT22;12380;51.118;4.176;2023-08-24T03:34:22;18.90;99.90
24252;DHT22;12380;51.118;4.176;2023-08-24T03:36:48;18.90;99.90
24252;DHT22;12380;51.118;4.176;2023-08-24T03:39:14;19.10;99.90
24252;DHT22;12380;51.118;4.176;2023-08-24T03:41:41;19.20;99.90
24252;DHT22;12380;51.118;4.176;2023-08-24T03:44:06;19.20;99.90
24252;DHT22;12380;51.118;4.176;2023-08-24T03:46:32;19.20;99.90
24252;DHT22;12380;51.118;4.176;2023-08-24T03:48:57;19.30;99.90
24252;DHT22;12380;51.118;4.176;2023-08-24T03:51:23;19.30;99.90
24252;DHT22;12380;51.118;4.176;2023-08-24T03:53:51;19.30;99.90
24252;DHT22;12380;51.118;4.176;2023-08-24T03:56:17;19.30;99.90
24252;DHT22;12380;51.118;4.176;2023-08-24T03:58:42;19.30;99.90
24252;DHT22;12380;51.118;4.176;2023-08-24T04:01:11;19.40;99.90
24252;DHT22;12380;51.118;4.176;2023-08-24T04:03:37;19.40;99.90
24252;DHT22;12380;51.118;4.176;2023-08-24T04:06:03;19.40;99.90
24252;DHT22;12380;51.118;4.176;2023-08-24T04:08:31;19.40;99.90
24252;DHT22;12380;51.118;4.176;2023-08-24T04:10:57;19.20;99.90
24252;DHT22;12380;51.118;4.176;2023-08-24T04:13:25;19.20;99.90
24252;DHT22;12380;51.118;4.176;2023-08-24T04:15:53;19.10;99.90
24252;DHT22;12380;51.118;4.176;2023-08-24T04:18:19;19.10;99.90
24252;DHT22;12380;51.118;4.176;2023-08-24T04:20:44;19.10;99.90
24252;DHT22;12380;51.118;4.176;2023-08-24T04:23:12;19.00;99.90
24252;DHT22;12380;51.118;4.176;2023-08-24T04:25:40;19.00;99.90
24252;DHT22;12380;51.118;4.176;2023-08-24T04:28:06;19.00;99.90
24252;DHT22;12380;51.118;4.176;2023-08-24T04:30:32;19.00;99.90
24252;DHT22;12380;51.118;4.176;2023-08-24T04:32:58;19.00;99.90
24252;DHT22;12380;51.118;4.176;2023-08-24T04:35:25;19.00;99.90
24252;DHT22;12380;51.118;4.176;2023-08-24T04:37:51;19.10;99.90
24252;DHT22;12380;51.118;4.176;2023-08-24T04:40:17;19.00;99.90
24252;DHT22;12380;51.118;4.176;2023-08-24T04:42:42;19.00;99.90
24252;DHT22;12380;51.118;4.176;2023-08-24T04:45:08;18.90;99.90
24252;DHT22;12380;51.118;4.176;2023-08-24T04:47:34;18.90;99.90
24252;DHT22;12380;51.118;4.176;2023-08-24T04:49:59;18.90;99.90
24252;DHT22;12380;51.118;4.176;2023-08-24T04:52:27;19.00;99.90
24252;DHT22;12380;51.118;4.176;2023-08-24T04:54:53;19.00;99.90
24252;DHT22;12380;51.118;4.176;2023-08-24T04:57:19;19.00;99.90
24252;DHT22;12380;51.118;4.176;2023-08-24T04:59:44;18.90;99.90
24252;DHT22;12380;51.118;4.176;2023-08-24T05:02:10;18.90;99.90
24252;DHT22;12380;51.118;4.176;2023-08-24T05:04:38;18.90;99.90
24252;DHT22;12380;51.118;4.176;2023-08-24T05:07:04;18.80;99.90
24252;DHT22;12380;51.118;4.176;2023-08-24T05:09:29;18.80;99.90
24252;DHT22;12380;51.118;4.176;2023-08-24T05:11:55;18.80;99.90
24252;DHT22;12380;51.118;4.176;2023-08-24T05:14:21;18.80;99.90
24252;DHT22;12380;51.118;4.176;2023-08-24T05:16:46;18.80;99.90
24252;DHT22;12380;51.118;4.176;2023-08-24T05:19:12;18.90;99.90
24252;DHT22;12380;51.118;4.176;2023-08-24T05:21:37;18.90;99.90
24252;DHT22;12380;51.118;4.176;2023-08-24T05:24:03;19.00;99.90
24252;DHT22;12380;51.118;4.176;2023-08-24T05:26:30;19.00;99.90
24252;DHT22;12380;51.118;4.176;2023-08-24T05:28:55;19.00;99.90
24252;DHT22;12380;51.118;4.176;2023-08-24T05:31:21;19.10;99.90
24252;DHT22;12380;51.118;4.176;2023-08-24T05:33:46;19.10;99.90
24252;DHT22;12380;51.118;4.176;2023-08-24T05:36:12;19.10;99.90
24252;DHT22;12380;51.118;4.176;2023-08-24T05:38:38;19.20;99.90
24252;DHT22;12380;51.118;4.176;2023-08-24T05:41:03;19.30;99.90
24252;DHT22;12380;51.118;4.176;2023-08-24T05:43:29;19.30;99.90
24252;DHT22;12380;51.118;4.176;2023-08-24T05:45:57;19.30;99.90
24252;DHT22;12380;51.118;4.176;2023-08-24T05:48:22;19.50;99.90
24252;DHT22;12380;51.118;4.176;2023-08-24T05:50:48;19.40;99.90
24252;DHT22;12380;51.118;4.176;2023-08-24T05:53:16;19.40;99.90
24252;DHT22;12380;51.118;4.176;2023-08-24T05:55:42;19.50;99.90
24252;DHT22;12380;51.118;4.176;2023-08-24T05:58:07;19.50;99.90
24252;DHT22;12380;51.118;4.176;2023-08-24T06:00:33;19.50;99.90
24252;DHT22;12380;51.118;4.176;2023-08-24T06:03:00;19.60;99.90
24252;DHT22;12380;51.118;4.176;2023-08-24T06:05:25;19.70;99.90
24252;DHT22;12380;51.118;4.176;2023-08-24T06:07:51;19.80;99.90
24252;DHT22;12380;51.118;4.176;2023-08-24T06:10:17;20.00;99.90
24252;DHT22;12380;51.118;4.176;2023-08-24T06:12:43;20.00;99.90
24252;DHT22;12380;51.118;4.176;2023-08-24T06:15:09;20.10;99.90
24252;DHT22;12380;51.118;4.176;2023-08-24T06:17:38;20.20;99.90
24252;DHT22;12380;51.118;4.176;2023-08-24T06:20:03;20.30;99.90
24252;DHT22;12380;51.118;4.176;2023-08-24T06:22:29;20.50;99.90
24252;DHT22;12380;51.118;4.176;2023-08-24T06:24:54;20.50;99.90
24252;DHT22;12380;51.118;4.176;2023-08-24T06:27:25;20.70;99.90
24252;DHT22;12380;51.118;4.176;2023-08-24T06:29:50;20.80;99.90
24252;DHT22;12380;51.118;4.176;2023-08-24T06:32:16;21.10;99.90
24252;DHT22;12380;51.118;4.176;2023-08-24T06:34:42;21.50;99.90
24252;DHT22;12380;51.118;4.176;2023-08-24T06:37:07;21.90;85.20
24252;DHT22;12380;51.118;4.176;2023-08-24T06:39:33;21.80;1.00
24252;DHT22;12380;51.118;4.176;2023-08-24T06:41:58;22.00;47.50
24252;DHT22;12380;51.118;4.176;2023-08-24T06:44:24;22.30;1.00
24252;DHT22;12380;51.118;4.176;2023-08-24T06:46:52;22.60;1.00
24252;DHT22;12380;51.118;4.176;2023-08-24T06:49:17;22.80;1.00
24252;DHT22;12380;51.118;4.176;2023-08-24T06:51:44;23.00;1.00
24252;DHT22;12380;51.118;4.176;2023-08-24T06:54:10;23.00;1.00
24252;DHT22;12380;51.118;4.176;2023-08-24T06:56:35;23.20;1.00
24252;DHT22;12380;51.118;4.176;2023-08-24T06:59:01;23.30;1.00
24252;DHT22;12380;51.118;4.176;2023-08-24T07:01:26;23.30;1.00
24252;DHT22;12380;51.118;4.176;2023-08-24T07:03:52;23.30;1.00
24252;DHT22;12380;51.118;4.176;2023-08-24T07:06:18;23.30;1.00
24252;DHT22;12380;51.118;4.176;2023-08-24T07:08:43;23.20;99.90
24252;DHT22;12380;51.118;4.176;2023-08-24T07:11:09;23.40;99.90
24252;DHT22;12380;51.118;4.176;2023-08-24T07:13:34;23.70;99.90
24252;DHT22;12380;51.118;4.176;2023-08-24T07:16:00;23.70;99.90
24252;DHT22;12380;51.118;4.176;2023-08-24T07:18:26;23.70;1.00
24252;DHT22;12380;51.118;4.176;2023-08-24T07:20:53;23.70;99.90
24252;DHT22;12380;51.118;4.176;2023-08-24T07:23:19;23.60;99.90
24252;DHT22;12380;51.118;4.176;2023-08-24T07:25:44;23.60;99.90
24252;DHT22;12380;51.118;4.176;2023-08-24T07:28:10;23.50;99.90
24252;DHT22;12380;51.118;4.176;2023-08-24T07:30:35;23.60;99.90
24252;DHT22;12380;51.118;4.176;2023-08-24T07:33:01;23.60;99.90
24252;DHT22;12380;51.118;4.176;2023-08-24T07:35:28;23.70;99.90
24252;DHT22;12380;51.118;4.176;2023-08-24T07:37:56;23.80;99.90
24252;DHT22;12380;51.118;4.176;2023-08-24T07:40:21;23.80;99.90
24252;DHT22;12380;51.118;4.176;2023-08-24T07:42:49;23.50;99.90
24252;DHT22;12380;51.118;4.176;2023-08-24T07:45:20;23.50;99.90
24252;DHT22;12380;51.118;4.176;2023-08-24T07:47:46;23.50;99.90
24252;DHT22;12380;51.118;4.176;2023-08-24T07:50:11;23.50;99.90
24252;DHT22;12380;51.118;4.176;2023-08-24T07:52:37;23.30;99.90
24252;DHT22;12380;51.118;4.176;2023-08-24T07:55:03;23.10;99.90
24252;DHT22;12380;51.118;4.176;2023-08-24T07:57:30;23.20;99.90
24252;DHT22;12380;51.118;4.176;2023-08-24T07:59:58;23.00;99.90
24252;DHT22;12380;51.118;4.176;2023-08-24T08:02:23;23.00;99.90
24252;DHT22;12380;51.118;4.176;2023-08-24T08:04:49;23.20;99.90
24252;DHT22;12380;51.118;4.176;2023-08-24T08:07:15;23.40;99.90
24252;DHT22;12380;51.118;4.176;2023-08-24T08:09:43;23.20;99.90
24252;DHT22;12380;51.118;4.176;2023-08-24T08:12:08;23.50;99.90
24252;DHT22;12380;51.118;4.176;2023-08-24T08:14:34;23.50;99.90
24252;DHT22;12380;51.118;4.176;2023-08-24T08:16:59;23.30;99.90
24252;DHT22;12380;51.118;4.176;2023-08-24T08:19:27;23.60;99.90
24252;DHT22;12380;51.118;4.176;2023-08-24T08:21:57;23.80;99.90
24252;DHT22;12380;51.118;4.176;2023-08-24T08:24:23;23.90;99.90
24252;DHT22;12380;51.118;4.176;2023-08-24T08:26:48;23.80;99.90
24252;DHT22;12380;51.118;4.176;2023-08-24T08:29:14;23.90;99.90
24252;DHT22;12380;51.118;4.176;2023-08-24T08:31:40;23.70;99.90
24252;DHT22;12380;51.118;4.176;2023-08-24T08:34:06;23.70;99.90
24252;DHT22;12380;51.118;4.176;2023-08-24T08:36:32;23.90;99.90
24252;DHT22;12380;51.118;4.176;2023-08-24T08:38:58;23.80;99.90
24252;DHT22;12380;51.118;4.176;2023-08-24T08:41:23;23.90;99.90
24252;DHT22;12380;51.118;4.176;2023-08-24T08:43:50;23.90;99.90
24252;DHT22;12380;51.118;4.176;2023-08-24T08:46:16;24.00;99.90
24252;DHT22;12380;51.118;4.176;2023-08-24T08:48:42;23.90;99.90
24252;DHT22;12380;51.118;4.176;2023-08-24T08:51:09;23.80;99.90
24252;DHT22;12380;51.118;4.176;2023-08-24T08:53:35;23.40;99.90
24252;DHT22;12380;51.118;4.176;2023-08-24T08:56:01;23.40;99.90
24252;DHT22;12380;51.118;4.176;2023-08-24T08:58:31;23.40;99.90
24252;DHT22;12380;51.118;4.176;2023-08-24T09:00:57;23.60;99.90
24252;DHT22;12380;51.118;4.176;2023-08-24T09:03:25;23.10;99.90
24252;DHT22;12380;51.118;4.176;2023-08-24T09:05:51;23.10;99.90
24252;DHT22;12380;51.118;4.176;2023-08-24T09:08:17;23.30;99.90
24252;DHT22;12380;51.118;4.176;2023-08-24T09:10:46;23.00;99.90
24252;DHT22;12380;51.118;4.176;2023-08-24T09:13:16;23.00;99.90
24252;DHT22;12380;51.118;4.176;2023-08-24T09:15:44;23.10;99.90
24252;DHT22;12380;51.118;4.176;2023-08-24T09:18:10;23.10;99.90
24252;DHT22;12380;51.118;4.176;2023-08-24T09:20:36;22.80;99.90
24252;DHT22;12380;51.118;4.176;2023-08-24T09:23:01;22.80;99.90
24252;DHT22;12380;51.118;4.176;2023-08-24T09:25:27;22.70;99.90
24252;DHT22;12380;51.118;4.176;2023-08-24T09:27:57;22.50;99.90
24252;DHT22;12380;51.118;4.176;2023-08-24T09:30:22;22.30;99.90
24252;DHT22;12380;51.118;4.176;2023-08-24T09:32:48;22.10;99.90
24252;DHT22;12380;51.118;4.176;2023-08-24T09:35:13;22.00;99.90
24252;DHT22;12380;51.118;4.176;2023-08-24T09:37:40;21.70;99.90
24252;DHT22;12380;51.118;4.176;2023-08-24T09:40:08;21.70;99.90
24252;DHT22;12380;51.118;4.176;2023-08-24T09:42:38;21.60;99.90
24252;DHT22;12380;51.118;4.176;2023-08-24T09:45:05;21.40;99.90
24252;DHT22;12380;51.118;4.176;2023-08-24T09:47:30;21.20;99.90
24252;DHT22;12380;51.118;4.176;2023-08-24T09:49:59;21.00;99.90
24252;DHT22;12380;51.118;4.176;2023-08-24T09:52:24;21.00;99.90
24252;DHT22;12380;51.118;4.176;2023-08-24T09:54:54;21.10;99.90
24252;DHT22;12380;51.118;4.176;2023-08-24T09:57:19;21.00;99.90
24252;DHT22;12380;51.118;4.176;2023-08-24T09:59:46;21.10;99.90
24252;DHT22;12380;51.118;4.176;2023-08-24T10:02:15;21.00;99.90
24252;DHT22;12380;51.118;4.176;2023-08-24T10:04:41;21.00;99.90
24252;DHT22;12380;51.118;4.176;2023-08-24T10:07:08;21.00;99.90
24252;DHT22;12380;51.118;4.176;2023-08-24T10:10:10;21.00;99.90
24252;DHT22;12380;51.118;4.176;2023-08-24T10:12:28;21.00;99.90
24252;DHT22;12380;51.118;4.176;2023-08-24T10:14:59;21.00;99.90
24252;DHT22;12380;51.118;4.176;2023-08-24T10:17:31;21.00;99.90
24252;DHT22;12380;51.118;4.176;2023-08-24T10:19:58;21.10;99.90
24252;DHT22;12380;51.118;4.176;2023-08-24T10:22:27;21.20;99.90
24252;DHT22;12380;51.118;4.176;2023-08-24T10:24:53;21.20;99.90
24252;DHT22;12380;51.118;4.176;2023-08-24T10:27:19;21.30;99.90
24252;DHT22;12380;51.118;4.176;2023-08-24T10:29:45;21.20;99.90
24252;DHT22;12380;51.118;4.176;2023-08-24T10:32:13;21.30;99.90
24252;DHT22;12380;51.118;4.176;2023-08-24T10:34:39;21.30;99.90
24252;DHT22;12380;51.118;4.176;2023-08-24T10:37:08;21.50;99.90
24252;DHT22;12380;51.118;4.176;2023-08-24T10:39:35;21.70;99.90
24252;DHT22;12380;51.118;4.176;2023-08-24T10:42:03;21.80;99.90
24252;DHT22;12380;51.118;4.176;2023-08-24T10:44:34;21.80;99.90
24252;DHT22;12380;51.118;4.176;2023-08-24T10:49:44;22.10;99.90
24252;DHT22;12380;51.118;4.176;2023-08-24T10:52:20;22.20;99.90
24252;DHT22;12380;51.118;4.176;2023-08-24T10:54:54;22.50;99.90
24252;DHT22;12380;51.118;4.176;2023-08-24T10:57:24;22.70;99.90
24252;DHT22;12380;51.118;4.176;2023-08-24T11:02:24;23.10;99.90
24252;DHT22;12380;51.118;4.176;2023-08-24T11:05:24;23.10;99.90
24252;DHT22;12380;51.118;4.176;2023-08-24T11:07:49;22.90;99.90
24252;DHT22;12380;51.118;4.176;2023-08-24T11:10:15;23.20;99.90
24252;DHT22;12380;51.118;4.176;2023-08-24T11:20:46;23.60;99.90
24252;DHT22;12380;51.118;4.176;2023-08-24T11:23:12;24.10;99.90
24252;DHT22;12380;51.118;4.176;2023-08-24T11:25:38;24.50;99.90
24252;DHT22;12380;51.118;4.176;2023-08-24T11:28:04;24.50;99.90
24252;DHT22;12380;51.118;4.176;2023-08-24T11:30:33;24.40;99.90
24252;DHT22;12380;51.118;4.176;2023-08-24T11:33:00;24.40;99.90
24252;DHT22;12380;51.118;4.176;2023-08-24T11:35:25;24.60;99.90
24252;DHT22;12380;51.118;4.176;2023-08-24T11:37:53;24.60;99.90
24252;DHT22;12380;51.118;4.176;2023-08-24T11:40:19;24.30;99.90
24252;DHT22;12380;51.118;4.176;2023-08-24T11:42:46;24.20;99.90
24252;DHT22;12380;51.118;4.176;2023-08-24T11:45:12;24.20;99.90
24252;DHT22;12380;51.118;4.176;2023-08-24T11:47:38;24.00;99.90
24252;DHT22;12380;51.118;4.176;2023-08-24T11:50:04;24.20;99.90
24252;DHT22;12380;51.118;4.176;2023-08-24T11:52:30;24.40;99.90
24252;DHT22;12380;51.118;4.176;2023-08-24T11:55:00;24.50;99.90
24252;DHT22;12380;51.118;4.176;2023-08-24T11:57:26;24.40;99.90
24252;DHT22;12380;51.118;4.176;2023-08-24T11:59:53;24.30;99.90
24252;DHT22;12380;51.118;4.176;2023-08-24T12:02:20;24.40;99.90
24252;DHT22;12380;51.118;4.176;2023-08-24T12:04:48;24.10;99.90
24252;DHT22;12380;51.118;4.176;2023-08-24T12:07:16;24.10;99.90
24252;DHT22;12380;51.118;4.176;2023-08-24T12:09:43;24.00;99.90
24252;DHT22;12380;51.118;4.176;2023-08-24T12:12:16;23.90;99.90
24252;DHT22;12380;51.118;4.176;2023-08-24T12:14:43;24.00;99.90
24252;DHT22;12380;51.118;4.176;2023-08-24T12:17:12;24.10;99.90
24252;DHT22;12380;51.118;4.176;2023-08-24T12:19:56;24.00;99.90
24252;DHT22;12380;51.118;4.176;2023-08-24T12:22:22;23.80;99.90
24252;DHT22;12380;51.118;4.176;2023-08-24T12:24:48;23.90;99.90
24252;DHT22;12380;51.118;4.176;2023-08-24T12:27:17;24.00;99.90
24252;DHT22;12380;51.118;4.176;2023-08-24T12:29:49;24.00;99.90
24252;DHT22;12380;51.118;4.176;2023-08-24T12:32:15;24.20;99.90
24252;DHT22;12380;51.118;4.176;2023-08-24T12:34:41;24.10;99.90
24252;DHT22;12380;51.118;4.176;2023-08-24T12:37:08;23.80;99.90
24252;DHT22;12380;51.118;4.176;2023-08-24T12:39:37;23.60;99.90
24252;DHT22;12380;51.118;4.176;2023-08-24T12:42:03;23.50;99.90
24252;DHT22;12380;51.118;4.176;2023-08-24T12:44:29;23.50;99.90
24252;DHT22;12380;51.118;4.176;2023-08-24T12:46:54;23.50;99.90
24252;DHT22;12380;51.118;4.176;2023-08-24T12:49:22;23.30;99.90
24252;DHT22;12380;51.118;4.176;2023-08-24T12:51:50;23.20;99.90
24252;DHT22;12380;51.118;4.176;2023-08-24T12:54:16;23.00;99.90
24252;DHT22;12380;51.118;4.176;2023-08-24T12:56:41;22.90;99.90
24252;DHT22;12380;51.118;4.176;2023-08-24T12:59:07;22.90;99.90
24252;DHT22;12380;51.118;4.176;2023-08-24T13:01:33;22.90;99.90
24252;DHT22;12380;51.118;4.176;2023-08-24T13:04:01;22.80;99.90
24252;DHT22;12380;51.118;4.176;2023-08-24T13:06:26;22.80;99.90
24252;DHT22;12380;51.118;4.176;2023-08-24T13:08:52;22.80;99.90
24252;DHT22;12380;51.118;4.176;2023-08-24T13:11:18;22.90;99.90
24252;DHT22;12380;51.118;4.176;2023-08-24T13:13:46;23.00;99.90
24252;DHT22;12380;51.118;4.176;2023-08-24T13:16:11;23.10;99.90
24252;DHT22;12380;51.118;4.176;2023-08-24T13:18:37;23.20;99.90
24252;DHT22;12380;51.118;4.176;2023-08-24T13:21:05;23.30;99.90
24252;DHT22;12380;51.118;4.176;2023-08-24T13:23:30;23.10;99.90
24252;DHT22;12380;51.118;4.176;2023-08-24T13:25:59;23.30;99.90
24252;DHT22;12380;51.118;4.176;2023-08-24T13:28:25;23.30;99.90
24252;DHT22;12380;51.118;4.176;2023-08-24T13:30:50;23.20;99.90
24252;DHT22;12380;51.118;4.176;2023-08-24T13:33:16;23.20;99.90
24252;DHT22;12380;51.118;4.176;2023-08-24T13:35:42;23.20;99.90
24252;DHT22;12380;51.118;4.176;2023-08-24T13:38:08;23.20;99.90
24252;DHT22;12380;51.118;4.176;2023-08-24T13:40:34;23.40;99.90
24252;DHT22;12380;51.118;4.176;2023-08-24T13:42:59;23.40;99.90
24252;DHT22;12380;51.118;4.176;2023-08-24T13:45:25;23.30;99.90
24252;DHT22;12380;51.118;4.176;2023-08-24T13:47:51;23.30;99.90
24252;DHT22;12380;51.118;4.176;2023-08-24T13:50:18;23.40;99.90
24252;DHT22;12380;51.118;4.176;2023-08-24T13:52:46;23.50;99.90
24252;DHT22;12380;51.118;4.176;2023-08-24T13:55:12;23.50;99.90
24252;DHT22;12380;51.118;4.176;2023-08-24T13:57:38;23.70;99.90
24252;DHT22;12380;51.118;4.176;2023-08-24T14:00:03;23.80;99.90
24252;DHT22;12380;51.118;4.176;2023-08-24T14:02:30;23.70;99.90
24252;DHT22;12380;51.118;4.176;2023-08-24T14:04:55;24.00;99.90
24252;DHT22;12380;51.118;4.176;2023-08-24T14:07:21;24.10;99.90
24252;DHT22;12380;51.118;4.176;2023-08-24T14:09:47;24.00;99.90
24252;DHT22;12380;51.118;4.176;2023-08-24T14:12:12;24.20;99.90
24252;DHT22;12380;51.118;4.176;2023-08-24T14:14:38;24.50;99.90
24252;DHT22;12380;51.118;4.176;2023-08-24T14:17:03;24.50;99.90
24252;DHT22;12380;51.118;4.176;2023-08-24T14:19:29;24.40;99.90
24252;DHT22;12380;51.118;4.176;2023-08-24T14:21:54;24.30;99.90
24252;DHT22;12380;51.118;4.176;2023-08-24T14:24:21;24.00;99.90
24252;DHT22;12380;51.118;4.176;2023-08-24T14:26:46;24.00;99.90
24252;DHT22;12380;51.118;4.176;2023-08-24T14:29:12;23.90;99.90
24252;DHT22;12380;51.118;4.176;2023-08-24T14:31:41;23.90;99.90
24252;DHT22;12380;51.118;4.176;2023-08-24T14:34:07;23.80;99.90
24252;DHT22;12380;51.118;4.176;2023-08-24T14:36:35;23.90;99.90
24252;DHT22;12380;51.118;4.176;2023-08-24T14:39:00;23.90;99.90
24252;DHT22;12380;51.118;4.176;2023-08-24T14:41:26;23.90;99.90
24252;DHT22;12380;51.118;4.176;2023-08-24T14:43:52;23.90;99.90
24252;DHT22;12380;51.118;4.176;2023-08-24T14:46:17;23.70;99.90
24252;DHT22;12380;51.118;4.176;2023-08-24T14:48:43;23.70;99.90
24252;DHT22;12380;51.118;4.176;2023-08-24T14:51:08;23.70;99.90
24252;DHT22;12380;51.118;4.176;2023-08-24T14:53:34;23.60;99.90
24252;DHT22;12380;51.118;4.176;2023-08-24T14:56:00;23.80;99.90
24252;DHT22;12380;51.118;4.176;2023-08-24T14:58:28;23.90;99.90
24252;DHT22;12380;51.118;4.176;2023-08-24T15:00:57;23.90;99.90
24252;DHT22;12380;51.118;4.176;2023-08-24T15:03:25;23.90;99.90
24252;DHT22;12380;51.118;4.176;2023-08-24T15:06:01;24.10;99.90
24252;DHT22;12380;51.118;4.176;2023-08-24T15:08:29;24.00;99.90
24252;DHT22;12380;51.118;4.176;2023-08-24T15:10:55;24.20;99.90
24252;DHT22;12380;51.118;4.176;2023-08-24T15:13:24;24.10;99.90
24252;DHT22;12380;51.118;4.176;2023-08-24T15:15:52;24.00;99.90
24252;DHT22;12380;51.118;4.176;2023-08-24T15:18:18;23.90;99.90
24252;DHT22;12380;51.118;4.176;2023-08-24T15:20:43;24.00;99.90
24252;DHT22;12380;51.118;4.176;2023-08-24T15:23:24;23.80;99.90
24252;DHT22;12380;51.118;4.176;2023-08-24T15:25:50;23.80;99.90
24252;DHT22;12380;51.118;4.176;2023-08-24T15:28:16;23.70;99.90
24252;DHT22;12380;51.118;4.176;2023-08-24T15:30:41;23.80;99.90
24252;DHT22;12380;51.118;4.176;2023-08-24T15:33:10;24.00;99.90
24252;DHT22;12380;51.118;4.176;2023-08-24T15:35:36;23.90;99.90
24252;DHT22;12380;51.118;4.176;2023-08-24T15:38:02;24.00;99.90
24252;DHT22;12380;51.118;4.176;2023-08-24T15:40:29;23.90;99.90
24252;DHT22;12380;51.118;4.176;2023-08-24T15:42:57;23.90;99.90
24252;DHT22;12380;51.118;4.176;2023-08-24T15:45:22;24.10;99.90
24252;DHT22;12380;51.118;4.176;2023-08-24T15:47:48;24.10;99.90
24252;DHT22;12380;51.118;4.176;2023-08-24T15:50:14;24.20;99.90
24252;DHT22;12380;51.118;4.176;2023-08-24T15:52:39;24.20;99.90